sensor_id;sensor_type;location;lat;lon;timestamp;pressure;altitude;pressure_sealevel;temperature;humidity
16094;BME280;8151;47.824;12.092;2023-05-20T00:02:12;96268.97;;;13.65;76.80
16094;BME280;8151;47.824;12.092;2023-05-20T00:04:40;96269.91;;;13.57;77.16
16094;BME280;8151;47.824;12.092;2023-05-20T00:07:10;96260.44;;;13.48;77.32
16094;BME280;8151;47.824;12.092;2023-05-20T00:09:38;96270.34;;;13.39;77.39
16094;BME280;8151;47.824;12.092;2023-05-20T00:12:07;96265.44;;;13.36;77.42
16094;BME280;8151;47.824;12.092;2023-05-20T00:14:35;96270.63;;;13.29;77.31
16094;BME280;8151;47.824;12.092;2023-05-20T00:17:05;96273.84;;;13.25;77.35
16094;BME280;8151;47.824;12.092;2023-05-20T00:19:34;96271.75;;;13.20;77.32
16094;BME280;8151;47.824;12.092;2023-05-20T00:22:02;96269.66;;;13.15;77.47
16094;BME280;8151;47.824;12.092;2023-05-20T00:24:30;96258.22;;;13.15;77.51
16094;BME280;8151;47.824;12.092;2023-05-20T00:26:59;96257.00;;;13.17;77.41
16094;BME280;8151;47.824;12.092;2023-05-20T00:29:28;96262.31;;;13.17;77.46
16094;BME280;8151;47.824;12.092;2023-05-20T00:31:57;96257.41;;;13.14;77.35
16094;BME280;8151;47.824;12.092;2023-05-20T00:34:27;96255.47;;;13.08;77.43
16094;BME280;8151;47.824;12.092;2023-05-20T00:36:57;96257.47;;;13.06;77.65
16094;BME280;8151;47.824;12.092;2023-05-20T00:39:25;96255.47;;;13.08;77.64
16094;BME280;8151;47.824;12.092;2023-05-20T00:41:55;96257.75;;;13.11;77.42
16094;BME280;8151;47.824;12.092;2023-05-20T00:44:26;96264.19;;;13.02;77.50
16094;BME280;8151;47.824;12.092;2023-05-20T00:46:55;96251.00;;;12.94;77.62
16094;BME280;8151;47.824;12.092;2023-05-20T00:49:24;96250.56;;;12.90;77.88
16094;BME280;8151;47.824;12.092;2023-05-20T00:51:54;96251.94;;;12.86;78.01
16094;BME280;8151;47.824;12.092;2023-05-20T00:54:22;96243.16;;;12.86;78.21
16094;BME280;8151;47.824;12.092;2023-05-20T00:56:51;96247.44;;;12.87;78.21
16094;BME280;8151;47.824;12.092;2023-05-20T00:59:19;96258.34;;;12.92;78.05
16094;BME280;8151;47.824;12.092;2023-05-20T01:01:48;96260.63;;;12.95;78.29
16094;BME280;8151;47.824;12.092;2023-05-20T01:04:17;96263.03;;;12.90;77.97
16094;BME280;8151;47.824;12.092;2023-05-20T01:06:45;96249.47;;;12.85;78.05
16094;BME280;8151;47.824;12.092;2023-05-20T01:09:15;96240.84;;;12.83;78.18
16094;BME280;8151;47.824;12.092;2023-05-20T01:11:47;96238.38;;;12.81;78.26
16094;BME280;8151;47.824;12.092;2023-05-20T01:14:20;96240.03;;;12.82;78.30
16094;BME280;8151;47.824;12.092;2023-05-20T01:16:51;96246.81;;;12.85;78.12
16094;BME280;8151;47.824;12.092;2023-05-20T01:19:26;96241.88;;;12.82;78.33
16094;BME280;8151;47.824;12.092;2023-05-20T01:21:57;96246.34;;;12.81;78.42
16094;BME280;8151;47.824;12.092;2023-05-20T01:24:28;96234.75;;;12.82;78.41
16094;BME280;8151;47.824;12.092;2023-05-20T01:26:58;96239.88;;;12.84;78.34
16094;BME280;8151;47.824;12.092;2023-05-20T01:29:26;96243.16;;;12.86;78.25
16094;BME280;8151;47.824;12.092;2023-05-20T01:31:56;96232.72;;;12.84;78.09
16094;BME280;8151;47.824;12.092;2023-05-20T01:34:27;96232.25;;;12.80;78.23
16094;BME280;8151;47.824;12.092;2023-05-20T01:36:56;96235.72;;;12.81;78.38
16094;BME280;8151;47.824;12.092;2023-05-20T01:39:28;96237.41;;;12.82;78.22
16094;BME280;8151;47.824;12.092;2023-05-20T01:41:59;96228.97;;;12.78;78.14
16094;BME280;8151;47.824;12.092;2023-05-20T01:44:29;96235.28;;;12.77;78.39
16094;BME280;8151;47.824;12.092;2023-05-20T01:46:59;96238.31;;;12.74;78.34
16094;BME280;8151;47.824;12.092;2023-05-20T01:49:28;96240.06;;;12.67;78.37
16094;BME280;8151;47.824;12.092;2023-05-20T01:51:56;96238.50;;;12.58;78.64
16094;BME280;8151;47.824;12.092;2023-05-20T01:54:29;96236.41;;;12.53;78.73
16094;BME280;8151;47.824;12.092;2023-05-20T01:56:58;96241.88;;;12.52;78.60
16094;BME280;8151;47.824;12.092;2023-05-20T01:59:27;96239.16;;;12.45;78.79
16094;BME280;8151;47.824;12.092;2023-05-20T02:01:56;96248.97;;;12.45;78.65
16094;BME280;8151;47.824;12.092;2023-05-20T02:04:27;96247.13;;;12.45;78.71
16094;BME280;8151;47.824;12.092;2023-05-20T02:06:56;96234.50;;;12.47;78.60
16094;BME280;8151;47.824;12.092;2023-05-20T02:09:26;96240.25;;;12.51;78.55
16094;BME280;8151;47.824;12.092;2023-05-20T02:11:56;96231.56;;;12.57;78.34
16094;BME280;8151;47.824;12.092;2023-05-20T02:14:25;96231.38;;;12.58;78.13
16094;BME280;8151;47.824;12.092;2023-05-20T02:17:02;96224.59;;;12.56;78.34
16094;BME280;8151;47.824;12.092;2023-05-20T02:19:30;96224.59;;;12.56;78.12
16094;BME280;8151;47.824;12.092;2023-05-20T02:21:59;96220.03;;;12.50;78.25
16094;BME280;8151;47.824;12.092;2023-05-20T02:24:27;96216.09;;;12.46;78.51
16094;BME280;8151;47.824;12.092;2023-05-20T02:26:58;96219.47;;;12.39;78.64
16094;BME280;8151;47.824;12.092;2023-05-20T02:29:27;96219.56;;;12.31;78.80
16094;BME280;8151;47.824;12.092;2023-05-20T02:31:56;96219.28;;;12.26;79.08
16094;BME280;8151;47.824;12.092;2023-05-20T02:34:27;96223.66;;;12.19;78.97
16094;BME280;8151;47.824;12.092;2023-05-20T02:36:56;96227.13;;;12.05;79.53
16094;BME280;8151;47.824;12.092;2023-05-20T02:39:26;96224.91;;;11.93;79.61
16094;BME280;8151;47.824;12.092;2023-05-20T02:41:56;96226.34;;;11.81;79.84
16094;BME280;8151;47.824;12.092;2023-05-20T02:44:26;96227.31;;;11.80;79.90
16094;BME280;8151;47.824;12.092;2023-05-20T02:46:54;96220.41;;;11.79;79.85
16094;BME280;8151;47.824;12.092;2023-05-20T02:49:23;96224.84;;;11.78;79.79
16094;BME280;8151;47.824;12.092;2023-05-20T02:51:51;96224.69;;;11.80;80.14
16094;BME280;8151;47.824;12.092;2023-05-20T02:54:20;96225.97;;;11.84;79.72
16094;BME280;8151;47.824;12.092;2023-05-20T02:56:48;96231.59;;;11.89;79.74
16094;BME280;8151;47.824;12.092;2023-05-20T02:59:18;96216.50;;;11.90;79.82
16094;BME280;8151;47.824;12.092;2023-05-20T03:01:46;96218.16;;;11.91;79.95
16094;BME280;8151;47.824;12.092;2023-05-20T03:04:15;96221.06;;;11.96;79.61
16094;BME280;8151;47.824;12.092;2023-05-20T03:06:45;96224.56;;;11.96;79.42
16094;BME280;8151;47.824;12.092;2023-05-20T03:09:14;96231.41;;;11.91;79.52
16094;BME280;8151;47.824;12.092;2023-05-20T03:11:42;96221.69;;;11.83;79.75
16094;BME280;8151;47.824;12.092;2023-05-20T03:14:19;96215.59;;;11.74;80.00
16094;BME280;8151;47.824;12.092;2023-05-20T03:16:47;96215.34;;;11.69;80.04
16094;BME280;8151;47.824;12.092;2023-05-20T03:19:15;96212.88;;;11.68;79.88
16094;BME280;8151;47.824;12.092;2023-05-20T03:21:44;96210.31;;;11.74;79.95
16094;BME280;8151;47.824;12.092;2023-05-20T03:24:12;96210.59;;;11.79;79.68
16094;BME280;8151;47.824;12.092;2023-05-20T03:26:41;96217.91;;;11.77;79.63
16094;BME280;8151;47.824;12.092;2023-05-20T03:29:11;96220.81;;;11.68;79.88
16094;BME280;8151;47.824;12.092;2023-05-20T03:31:41;96223.22;;;11.54;80.08
16094;BME280;8151;47.824;12.092;2023-05-20T03:34:09;96234.13;;;11.59;80.30
16094;BME280;8151;47.824;12.092;2023-05-20T03:36:38;96228.75;;;11.68;79.93
16094;BME280;8151;47.824;12.092;2023-05-20T03:39:06;96222.28;;;11.70;79.75
16094;BME280;8151;47.824;12.092;2023-05-20T03:41:35;96228.03;;;11.74;79.73
16094;BME280;8151;47.824;12.092;2023-05-20T03:44:04;96232.78;;;11.78;79.57
16094;BME280;8151;47.824;12.092;2023-05-20T03:46:32;96223.84;;;11.79;79.81
16094;BME280;8151;47.824;12.092;2023-05-20T03:49:02;96233.66;;;11.79;80.07
16094;BME280;8151;47.824;12.092;2023-05-20T03:51:31;96235.81;;;11.75;80.00
16094;BME280;8151;47.824;12.092;2023-05-20T03:54:00;96237.19;;;11.71;80.20
16094;BME280;8151;47.824;12.092;2023-05-20T03:56:29;96236.53;;;11.69;80.34
16094;BME280;8151;47.824;12.092;2023-05-20T03:58:57;96226.84;;;11.76;80.26
16094;BME280;8151;47.824;12.092;2023-05-20T04:01:27;96227.63;;;11.85;80.02
16094;BME280;8151;47.824;12.092;2023-05-20T04:03:56;96236.97;;;11.96;79.93
16094;BME280;8151;47.824;12.092;2023-05-20T04:06:26;96240.56;;;12.03;79.62
16094;BME280;8151;47.824;12.092;2023-05-20T04:08:54;96244.16;;;12.10;79.57
16094;BME280;8151;47.824;12.092;2023-05-20T04:11:23;96240.94;;;12.15;79.52
16094;BME280;8151;47.824;12.092;2023-05-20T04:13:51;96242.50;;;12.09;79.74
16094;BME280;8151;47.824;12.092;2023-05-20T04:16:20;96240.47;;;12.11;79.69
16094;BME280;8151;47.824;12.092;2023-05-20T04:18:49;96242.78;;;12.14;79.75
16094;BME280;8151;47.824;12.092;2023-05-20T04:21:18;96244.72;;;12.20;79.60
16094;BME280;8151;47.824;12.092;2023-05-20T04:23:48;96236.94;;;12.19;79.52
16094;BME280;8151;47.824;12.092;2023-05-20T04:26:16;96242.06;;;12.20;79.45
16094;BME280;8151;47.824;12.092;2023-05-20T04:28:45;96246.38;;;12.21;79.50
16094;BME280;8151;47.824;12.092;2023-05-20T04:31:15;96240.50;;;12.26;79.30
16094;BME280;8151;47.824;12.092;2023-05-20T04:33:44;96240.69;;;12.25;79.40
16094;BME280;8151;47.824;12.092;2023-05-20T04:36:14;96243.81;;;12.28;79.38
16094;BME280;8151;47.824;12.092;2023-05-20T04:38:42;96246.00;;;12.25;79.38
16094;BME280;8151;47.824;12.092;2023-05-20T04:41:13;96233.56;;;12.10;79.69
16094;BME280;8151;47.824;12.092;2023-05-20T04:43:42;96244.03;;;12.04;80.12
16094;BME280;8151;47.824;12.092;2023-05-20T04:46:11;96244.88;;;12.04;80.24
16094;BME280;8151;47.824;12.092;2023-05-20T04:48:40;96234.53;;;12.09;80.22
16094;BME280;8151;47.824;12.092;2023-05-20T04:51:10;96240.44;;;12.19;80.01
16094;BME280;8151;47.824;12.092;2023-05-20T04:53:38;96241.78;;;12.30;79.86
16094;BME280;8151;47.824;12.092;2023-05-20T04:56:06;96246.19;;;12.38;79.63
16094;BME280;8151;47.824;12.092;2023-05-20T04:58:36;96237.31;;;12.46;79.50
16094;BME280;8151;47.824;12.092;2023-05-20T05:01:05;96239.22;;;12.52;79.48
16094;BME280;8151;47.824;12.092;2023-05-20T05:03:34;96236.69;;;12.58;79.62
16094;BME280;8151;47.824;12.092;2023-05-20T05:06:03;96225.97;;;12.67;79.38
16094;BME280;8151;47.824;12.092;2023-05-20T05:08:31;96230.72;;;12.71;79.19
16094;BME280;8151;47.824;12.092;2023-05-20T05:11:03;96228.69;;;12.73;79.27
16094;BME280;8151;47.824;12.092;2023-05-20T05:13:32;96227.53;;;12.76;79.40
16094;BME280;8151;47.824;12.092;2023-05-20T05:16:03;96220.66;;;12.82;79.56
16094;BME280;8151;47.824;12.092;2023-05-20T05:18:31;96229.88;;;12.86;79.31
16094;BME280;8151;47.824;12.092;2023-05-20T05:21:01;96229.31;;;12.90;79.41
16094;BME280;8151;47.824;12.092;2023-05-20T05:23:30;96224.00;;;12.90;79.49
16094;BME280;8151;47.824;12.092;2023-05-20T05:25:59;96223.66;;;12.93;79.65
16094;BME280;8151;47.824;12.092;2023-05-20T05:28:30;96225.09;;;12.96;79.39
16094;BME280;8151;47.824;12.092;2023-05-20T05:30:59;96224.72;;;12.99;79.68
16094;BME280;8151;47.824;12.092;2023-05-20T05:33:31;96216.81;;;13.06;79.75
16094;BME280;8151;47.824;12.092;2023-05-20T05:35:59;96224.84;;;13.12;79.42
16094;BME280;8151;47.824;12.092;2023-05-20T05:38:30;96224.31;;;13.17;79.52
16094;BME280;8151;47.824;12.092;2023-05-20T05:40:58;96229.22;;;13.20;79.58
16094;BME280;8151;47.824;12.092;2023-05-20T05:43:27;96221.34;;;13.27;79.48
16094;BME280;8151;47.824;12.092;2023-05-20T05:45:56;96218.69;;;13.27;79.75
16094;BME280;8151;47.824;12.092;2023-05-20T05:48:24;96221.97;;;13.29;79.88
16094;BME280;8151;47.824;12.092;2023-05-20T05:50:54;96219.22;;;13.37;80.09
16094;BME280;8151;47.824;12.092;2023-05-20T05:53:23;96219.09;;;13.45;79.93
16094;BME280;8151;47.824;12.092;2023-05-20T05:55:51;96215.31;;;13.54;79.59
16094;BME280;8151;47.824;12.092;2023-05-20T05:58:20;96217.81;;;13.63;79.46
16094;BME280;8151;47.824;12.092;2023-05-20T06:00:50;96217.09;;;13.69;79.71
16094;BME280;8151;47.824;12.092;2023-05-20T06:03:19;96216.69;;;13.72;79.73
16094;BME280;8151;47.824;12.092;2023-05-20T06:05:47;96218.34;;;13.73;79.63
16094;BME280;8151;47.824;12.092;2023-05-20T06:08:17;96219.19;;;13.80;79.83
16094;BME280;8151;47.824;12.092;2023-05-20T06:10:47;96214.78;;;13.87;79.54
16094;BME280;8151;47.824;12.092;2023-05-20T06:13:16;96210.47;;;13.86;79.92
16094;BME280;8151;47.824;12.092;2023-05-20T06:15:45;96206.97;;;13.86;79.73
16094;BME280;8151;47.824;12.092;2023-05-20T06:18:17;96204.13;;;13.87;79.94
16094;BME280;8151;47.824;12.092;2023-05-20T06:20:45;96215.41;;;13.89;80.06
16094;BME280;8151;47.824;12.092;2023-05-20T06:23:14;96214.41;;;13.90;80.00
16094;BME280;8151;47.824;12.092;2023-05-20T06:25:44;96197.41;;;13.91;80.11
16094;BME280;8151;47.824;12.092;2023-05-20T06:28:12;96198.66;;;13.95;80.01
16094;BME280;8151;47.824;12.092;2023-05-20T06:30:41;96195.63;;;13.98;80.01
16094;BME280;8151;47.824;12.092;2023-05-20T06:33:09;96198.66;;;13.95;80.00
16094;BME280;8151;47.824;12.092;2023-05-20T06:35:38;96196.44;;;13.99;80.15
16094;BME280;8151;47.824;12.092;2023-05-20T06:38:06;96208.78;;;14.07;80.28
16094;BME280;8151;47.824;12.092;2023-05-20T06:40:35;96200.84;;;14.13;80.08
16094;BME280;8151;47.824;12.092;2023-05-20T06:43:05;96201.06;;;14.18;80.04
16094;BME280;8151;47.824;12.092;2023-05-20T06:45:33;96202.31;;;14.23;79.98
16094;BME280;8151;47.824;12.092;2023-05-20T06:48:02;96198.47;;;14.25;79.89
16094;BME280;8151;47.824;12.092;2023-05-20T06:50:30;96202.75;;;14.26;79.98
16094;BME280;8151;47.824;12.092;2023-05-20T06:52:59;96196.63;;;14.26;80.10
16094;BME280;8151;47.824;12.092;2023-05-20T06:55:29;96206.66;;;14.24;80.05
16094;BME280;8151;47.824;12.092;2023-05-20T06:57:58;96217.28;;;14.24;79.96
16094;BME280;8151;47.824;12.092;2023-05-20T07:00:28;96208.09;;;14.26;80.27
16094;BME280;8151;47.824;12.092;2023-05-20T07:02:57;96218.34;;;14.29;80.15
16094;BME280;8151;47.824;12.092;2023-05-20T07:05:25;96209.78;;;14.34;79.77
16094;BME280;8151;47.824;12.092;2023-05-20T07:07:55;96200.38;;;14.38;80.10
16094;BME280;8151;47.824;12.092;2023-05-20T07:10:23;96199.19;;;14.41;79.94
16094;BME280;8151;47.824;12.092;2023-05-20T07:12:52;96202.47;;;14.43;79.83
16094;BME280;8151;47.824;12.092;2023-05-20T07:15:20;96209.41;;;14.44;79.91
16094;BME280;8151;47.824;12.092;2023-05-20T07:17:50;96197.97;;;14.50;79.55
16094;BME280;8151;47.824;12.092;2023-05-20T07:20:19;96198.88;;;14.57;79.58
16094;BME280;8151;47.824;12.092;2023-05-20T07:22:57;96204.19;;;14.57;79.78
16094;BME280;8151;47.824;12.092;2023-05-20T07:25:27;96202.78;;;14.61;79.96
16094;BME280;8151;47.824;12.092;2023-05-20T07:27:55;96193.19;;;14.67;79.56
16094;BME280;8151;47.824;12.092;2023-05-20T07:30:24;96190.09;;;14.63;79.63
16094;BME280;8151;47.824;12.092;2023-05-20T07:32:54;96193.63;;;14.70;80.00
16094;BME280;8151;47.824;12.092;2023-05-20T07:35:22;96187.09;;;14.80;79.65
16094;BME280;8151;47.824;12.092;2023-05-20T07:37:51;96184.06;;;14.89;79.61
16094;BME280;8151;47.824;12.092;2023-05-20T07:40:20;96176.50;;;14.93;79.57
16094;BME280;8151;47.824;12.092;2023-05-20T07:42:49;96168.53;;;15.00;79.50
16094;BME280;8151;47.824;12.092;2023-05-20T07:45:17;96164.00;;;15.00;79.18
16094;BME280;8151;47.824;12.092;2023-05-20T07:47:46;96159.28;;;14.89;79.70
16094;BME280;8151;47.824;12.092;2023-05-20T07:50:15;96160.72;;;14.91;79.89
16094;BME280;8151;47.824;12.092;2023-05-20T07:52:44;96167.09;;;14.97;80.05
16094;BME280;8151;47.824;12.092;2023-05-20T07:55:22;96162.56;;;15.04;79.79
16094;BME280;8151;47.824;12.092;2023-05-20T07:57:51;96167.75;;;15.19;79.87
16094;BME280;8151;47.824;12.092;2023-05-20T08:00:20;96166.34;;;15.36;79.54
16094;BME280;8151;47.824;12.092;2023-05-20T08:02:48;96158.56;;;15.48;79.39
16094;BME280;8151;47.824;12.092;2023-05-20T08:05:19;96156.94;;;15.61;79.48
16094;BME280;8151;47.824;12.092;2023-05-20T08:07:48;96154.06;;;15.75;79.40
16094;BME280;8151;47.824;12.092;2023-05-20T08:10:17;96149.97;;;15.86;79.43
16094;BME280;8151;47.824;12.092;2023-05-20T08:12:49;96155.31;;;16.00;79.50
16094;BME280;8151;47.824;12.092;2023-05-20T08:15:17;96151.97;;;16.11;79.59
16094;BME280;8151;47.824;12.092;2023-05-20T08:17:46;96154.44;;;16.19;79.50
16094;BME280;8151;47.824;12.092;2023-05-20T08:20:14;96152.56;;;16.26;79.29
16094;BME280;8151;47.824;12.092;2023-05-20T08:22:44;96145.34;;;16.40;79.09
16094;BME280;8151;47.824;12.092;2023-05-20T08:25:13;96157.22;;;16.51;79.06
16094;BME280;8151;47.824;12.092;2023-05-20T08:27:42;96165.22;;;16.58;79.29
16094;BME280;8151;47.824;12.092;2023-05-20T08:30:11;96157.19;;;16.64;79.07
16094;BME280;8151;47.824;12.092;2023-05-20T08:32:39;96156.78;;;16.67;79.23
16094;BME280;8151;47.824;12.092;2023-05-20T08:35:08;96153.66;;;16.77;79.22
16094;BME280;8151;47.824;12.092;2023-05-20T08:37:37;96144.38;;;16.80;78.80
16094;BME280;8151;47.824;12.092;2023-05-20T08:40:08;96137.41;;;16.85;78.96
16094;BME280;8151;47.824;12.092;2023-05-20T08:42:41;96136.94;;;16.88;78.93
16094;BME280;8151;47.824;12.092;2023-05-20T08:45:11;96141.06;;;16.91;78.81
16094;BME280;8151;47.824;12.092;2023-05-20T08:47:41;96143.53;;;16.92;78.76
16094;BME280;8151;47.824;12.092;2023-05-20T08:50:11;96142.06;;;16.97;78.87
16094;BME280;8151;47.824;12.092;2023-05-20T08:52:42;96145.09;;;17.07;78.88
16094;BME280;8151;47.824;12.092;2023-05-20T08:55:15;96139.88;;;17.19;78.56
16094;BME280;8151;47.824;12.092;2023-05-20T08:57:49;96152.97;;;17.27;78.26
16094;BME280;8151;47.824;12.092;2023-05-20T09:00:18;96141.66;;;17.31;77.98
16094;BME280;8151;47.824;12.092;2023-05-20T09:02:47;96151.31;;;17.32;77.86
16094;BME280;8151;47.824;12.092;2023-05-20T09:05:15;96135.72;;;17.29;77.88
16094;BME280;8151;47.824;12.092;2023-05-20T09:07:44;96141.66;;;17.31;77.88
16094;BME280;8151;47.824;12.092;2023-05-20T09:10:14;96134.34;;;17.45;77.77
16094;BME280;8151;47.824;12.092;2023-05-20T09:12:44;96138.13;;;17.63;77.50
16094;BME280;8151;47.824;12.092;2023-05-20T09:15:12;96139.00;;;17.82;77.10
16094;BME280;8151;47.824;12.092;2023-05-20T09:17:41;96139.88;;;18.01;76.83
16094;BME280;8151;47.824;12.092;2023-05-20T09:20:10;96131.56;;;18.09;76.59
16094;BME280;8151;47.824;12.092;2023-05-20T09:22:39;96128.81;;;18.16;76.48
16094;BME280;8151;47.824;12.092;2023-05-20T09:25:08;96132.03;;;18.24;76.32
16094;BME280;8151;47.824;12.092;2023-05-20T09:27:40;96121.41;;;18.36;75.78
16094;BME280;8151;47.824;12.092;2023-05-20T09:30:09;96122.06;;;18.50;75.52
16094;BME280;8151;47.824;12.092;2023-05-20T09:32:39;96118.97;;;18.65;75.16
16094;BME280;8151;47.824;12.092;2023-05-20T09:35:08;96127.19;;;18.70;74.94
16094;BME280;8151;47.824;12.092;2023-05-20T09:37:41;96120.53;;;18.73;74.94
16094;BME280;8151;47.824;12.092;2023-05-20T09:40:11;96124.00;;;18.80;74.72
16094;BME280;8151;47.824;12.092;2023-05-20T09:42:49;96123.66;;;18.88;74.46
16094;BME280;8151;47.824;12.092;2023-05-20T09:45:20;96118.59;;;18.98;74.67
16094;BME280;8151;47.824;12.092;2023-05-20T09:47:52;96113.13;;;19.05;74.65
16094;BME280;8151;47.824;12.092;2023-05-20T09:50:23;96110.50;;;19.17;74.65
16094;BME280;8151;47.824;12.092;2023-05-20T09:52:53;96099.94;;;19.34;74.51
16094;BME280;8151;47.824;12.092;2023-05-20T09:55:23;96101.59;;;19.46;73.94
16094;BME280;8151;47.824;12.092;2023-05-20T09:57:53;96100.88;;;19.51;73.95
16094;BME280;8151;47.824;12.092;2023-05-20T10:00:23;96097.28;;;19.57;73.79
16094;BME280;8151;47.824;12.092;2023-05-20T10:02:52;96087.63;;;19.68;73.56
16094;BME280;8151;47.824;12.092;2023-05-20T10:05:24;96079.09;;;19.71;73.23
16094;BME280;8151;47.824;12.092;2023-05-20T10:11:06;96079.00;;;20.01;72.87
16094;BME280;8151;47.824;12.092;2023-05-20T10:13:47;96072.31;;;20.16;72.31
16094;BME280;8151;47.824;12.092;2023-05-20T10:16:30;96072.97;;;20.35;71.84
16094;BME280;8151;47.824;12.092;2023-05-20T10:19:15;96070.19;;;20.41;71.45
16094;BME280;8151;47.824;12.092;2023-05-20T10:21:56;96065.66;;;20.30;71.65
16094;BME280;8151;47.824;12.092;2023-05-20T10:24:34;96062.13;;;20.30;71.50
16094;BME280;8151;47.824;12.092;2023-05-20T10:27:09;96063.97;;;20.41;71.00
16094;BME280;8151;47.824;12.092;2023-05-20T10:29:44;96059.97;;;20.55;70.13
16094;BME280;8151;47.824;12.092;2023-05-20T10:32:25;96051.97;;;20.72;69.35
16094;BME280;8151;47.824;12.092;2023-05-20T10:34:58;96046.88;;;20.88;68.94
16094;BME280;8151;47.824;12.092;2023-05-20T10:37:30;96046.34;;;21.02;68.23
16094;BME280;8151;47.824;12.092;2023-05-20T10:40:04;96052.00;;;21.18;67.60
16094;BME280;8151;47.824;12.092;2023-05-20T10:42:34;96058.09;;;21.30;67.30
16094;BME280;8151;47.824;12.092;2023-05-20T10:45:05;96052.00;;;21.35;66.92
16094;BME280;8151;47.824;12.092;2023-05-20T10:47:34;96047.06;;;21.43;66.62
16094;BME280;8151;47.824;12.092;2023-05-20T10:50:05;96054.25;;;21.55;66.16
16094;BME280;8151;47.824;12.092;2023-05-20T10:52:35;96050.66;;;21.66;65.87
16094;BME280;8151;47.824;12.092;2023-05-20T10:55:05;96042.63;;;21.71;65.53
16094;BME280;8151;47.824;12.092;2023-05-20T10:57:34;96045.84;;;21.68;65.47
16094;BME280;8151;47.824;12.092;2023-05-20T11:00:08;96044.94;;;21.62;65.39
16094;BME280;8151;47.824;12.092;2023-05-20T11:02:38;96038.97;;;21.60;65.45
16094;BME280;8151;47.824;12.092;2023-05-20T11:05:10;96043.06;;;21.63;65.34
16094;BME280;8151;47.824;12.092;2023-05-20T11:07:38;96047.16;;;21.66;64.97
16094;BME280;8151;47.824;12.092;2023-05-20T11:10:08;96039.31;;;21.64;64.77
16094;BME280;8151;47.824;12.092;2023-05-20T11:12:38;96040.69;;;21.67;64.89
16094;BME280;8151;47.824;12.092;2023-05-20T11:15:10;96032.75;;;21.77;64.82
16094;BME280;8151;47.824;12.092;2023-05-20T11:17:51;96022.16;;;21.87;64.22
16094;BME280;8151;47.824;12.092;2023-05-20T11:20:20;96026.91;;;22.02;63.99
16094;BME280;8151;47.824;12.092;2023-05-20T11:22:48;96022.00;;;22.16;63.55
16094;BME280;8151;47.824;12.092;2023-05-20T11:25:18;96022.38;;;22.25;63.25
16094;BME280;8151;47.824;12.092;2023-05-20T11:27:57;96015.25;;;22.35;63.01
16094;BME280;8151;47.824;12.092;2023-05-20T11:30:26;96013.41;;;22.41;62.98
16094;BME280;8151;47.824;12.092;2023-05-20T11:32:56;96012.91;;;22.44;62.30
16094;BME280;8151;47.824;12.092;2023-05-20T11:35:27;96000.00;;;22.46;62.05
16094;BME280;8151;47.824;12.092;2023-05-20T11:37:59;96000.50;;;22.43;61.51
16094;BME280;8151;47.824;12.092;2023-05-20T11:40:30;95995.41;;;22.47;61.04
16094;BME280;8151;47.824;12.092;2023-05-20T11:43:16;95990.69;;;22.59;60.85
16094;BME280;8151;47.824;12.092;2023-05-20T11:45:52;95983.50;;;22.70;60.42
16094;BME280;8151;47.824;12.092;2023-05-20T11:48:22;95980.16;;;22.85;60.20
16094;BME280;8151;47.824;12.092;2023-05-20T11:50:52;95971.91;;;22.96;59.69
16094;BME280;8151;47.824;12.092;2023-05-20T11:53:22;95967.72;;;23.11;59.05
16094;BME280;8151;47.824;12.092;2023-05-20T11:55:53;95963.84;;;23.29;58.30
16094;BME280;8151;47.824;12.092;2023-05-20T11:58:23;95976.59;;;23.44;57.42
16094;BME280;8151;47.824;12.092;2023-05-20T12:00:53;95968.91;;;23.57;56.74
16094;BME280;8151;47.824;12.092;2023-05-20T12:03:39;95965.19;;;23.74;56.68
16094;BME280;8151;47.824;12.092;2023-05-20T12:06:10;95963.66;;;23.83;56.04
16094;BME280;8151;47.824;12.092;2023-05-20T12:08:39;95960.72;;;23.85;55.92
16094;BME280;8151;47.824;12.092;2023-05-20T12:11:07;95958.00;;;23.90;55.96
16094;BME280;8151;47.824;12.092;2023-05-20T12:13:36;95951.84;;;24.00;55.58
16094;BME280;8151;47.824;12.092;2023-05-20T12:16:07;95947.03;;;24.17;55.17
16094;BME280;8151;47.824;12.092;2023-05-20T12:18:36;95938.72;;;24.34;54.88
16094;BME280;8151;47.824;12.092;2023-05-20T12:21:05;95943.88;;;24.46;54.46
16094;BME280;8151;47.824;12.092;2023-05-20T12:23:34;95946.41;;;24.63;54.14
16094;BME280;8151;47.824;12.092;2023-05-20T12:26:02;95944.78;;;24.82;52.71
16094;BME280;8151;47.824;12.092;2023-05-20T12:28:33;95944.25;;;24.90;52.07
16094;BME280;8151;47.824;12.092;2023-05-20T12:31:02;95941.56;;;24.95;51.50
16094;BME280;8151;47.824;12.092;2023-05-20T12:33:32;95942.38;;;25.01;50.77
16094;BME280;8151;47.824;12.092;2023-05-20T12:36:00;95942.09;;;25.08;50.42
16094;BME280;8151;47.824;12.092;2023-05-20T12:38:29;95946.41;;;24.99;49.81
16094;BME280;8151;47.824;12.092;2023-05-20T12:40:57;95945.63;;;24.88;49.89
16094;BME280;8151;47.824;12.092;2023-05-20T12:43:25;95938.56;;;24.82;49.21
16094;BME280;8151;47.824;12.092;2023-05-20T12:45:54;95937.47;;;24.72;48.91
16094;BME280;8151;47.824;12.092;2023-05-20T12:48:23;95933.13;;;24.61;49.18
16094;BME280;8151;47.824;12.092;2023-05-20T12:50:52;95928.25;;;24.53;49.00
16094;BME280;8151;47.824;12.092;2023-05-20T12:53:21;95927.66;;;24.46;48.98
16094;BME280;8151;47.824;12.092;2023-05-20T12:55:49;95924.94;;;24.41;48.72
16094;BME280;8151;47.824;12.092;2023-05-20T12:58:18;95926.56;;;24.36;48.86
16094;BME280;8151;47.824;12.092;2023-05-20T13:00:46;95914.94;;;24.36;49.06
16094;BME280;8151;47.824;12.092;2023-05-20T13:03:15;95909.25;;;24.37;48.31
16094;BME280;8151;47.824;12.092;2023-05-20T13:05:44;95915.22;;;24.40;48.20
16094;BME280;8151;47.824;12.092;2023-05-20T13:08:14;95908.72;;;24.41;47.82
16094;BME280;8151;47.824;12.092;2023-05-20T13:10:42;95907.13;;;24.45;47.34
16094;BME280;8151;47.824;12.092;2023-05-20T13:13:10;95907.44;;;24.53;47.21
16094;BME280;8151;47.824;12.092;2023-05-20T13:15:39;95912.88;;;24.74;46.62
16094;BME280;8151;47.824;12.092;2023-05-20T13:18:08;95914.75;;;24.89;46.01